SUT weather

Sumbawanga Airport
Sumbawanga, Rukwa Region, Tanzania

Public forecast

Using degrees Celsius for public forecast. Weather courtesy of forecast.io.

METAR (pilot weather report)

Report is more than 6 hours old.

Retrieved 2019/05/25 16:00 UTC (1 day ago):

HTSU 251600Z 09003KT 9999 FEW020 21/12 Q1020

TAF (pilot weather forecast)

Forecast is more than 12 hours old.

Closest forecast is Songwe Airport, 114.7 nm (212.5 km) ESE. Retrieved 2019/04/04 06:00 UTC (2 months ago):

TAF HTGW 040500Z 0406/0506 15010KT 9999 SCT018 FEW020CB BECMG 0412/0415 27010KT 9999 TSRA BKN025 FEW026CB